sensor_id;sensor_type;location;lat;lon;timestamp;P1;durP1;ratioP1;P2;durP2;ratioP2
11877;SDS011;5998;42.676;23.268;2022-11-12T00:00:04;30.30;;;20.87;;
11877;SDS011;5998;42.676;23.268;2022-11-12T00:02:31;28.77;;;20.40;;
11877;SDS011;5998;42.676;23.268;2022-11-12T00:04:58;30.83;;;21.47;;
11877;SDS011;5998;42.676;23.268;2022-11-12T00:07:25;29.90;;;20.17;;
11877;SDS011;5998;42.676;23.268;2022-11-12T00:09:51;30.57;;;20.47;;
11877;SDS011;5998;42.676;23.268;2022-11-12T00:12:19;28.90;;;20.10;;
11877;SDS011;5998;42.676;23.268;2022-11-12T00:14:46;32.33;;;21.37;;
11877;SDS011;5998;42.676;23.268;2022-11-12T00:17:13;29.13;;;20.30;;
11877;SDS011;5998;42.676;23.268;2022-11-12T00:19:39;31.67;;;20.90;;
11877;SDS011;5998;42.676;23.268;2022-11-12T00:22:06;29.87;;;21.00;;
11877;SDS011;5998;42.676;23.268;2022-11-12T00:24:33;30.73;;;21.23;;
11877;SDS011;5998;42.676;23.268;2022-11-12T00:26:59;31.73;;;21.87;;
11877;SDS011;5998;42.676;23.268;2022-11-12T00:29:27;32.60;;;21.23;;
11877;SDS011;5998;42.676;23.268;2022-11-12T00:31:54;35.07;;;21.90;;
11877;SDS011;5998;42.676;23.268;2022-11-12T00:34:21;29.40;;;21.27;;
11877;SDS011;5998;42.676;23.268;2022-11-12T00:36:47;31.33;;;20.87;;
11877;SDS011;5998;42.676;23.268;2022-11-12T00:39:14;33.40;;;22.33;;
11877;SDS011;5998;42.676;23.268;2022-11-12T00:41:41;29.67;;;20.33;;
11877;SDS011;5998;42.676;23.268;2022-11-12T00:44:08;32.30;;;21.57;;
11877;SDS011;5998;42.676;23.268;2022-11-12T00:46:36;32.67;;;20.80;;
11877;SDS011;5998;42.676;23.268;2022-11-12T00:49:02;29.03;;;20.73;;
11877;SDS011;5998;42.676;23.268;2022-11-12T00:51:29;30.43;;;21.10;;
11877;SDS011;5998;42.676;23.268;2022-11-12T00:53:55;29.97;;;21.17;;
11877;SDS011;5998;42.676;23.268;2022-11-12T00:56:22;32.63;;;20.23;;
11877;SDS011;5998;42.676;23.268;2022-11-12T00:58:49;29.80;;;19.37;;
11877;SDS011;5998;42.676;23.268;2022-11-12T01:01:16;31.60;;;20.90;;
11877;SDS011;5998;42.676;23.268;2022-11-12T01:03:44;28.27;;;20.13;;
11877;SDS011;5998;42.676;23.268;2022-11-12T01:06:12;27.83;;;20.10;;
11877;SDS011;5998;42.676;23.268;2022-11-12T01:08:40;31.37;;;20.47;;
11877;SDS011;5998;42.676;23.268;2022-11-12T01:11:09;29.20;;;19.63;;
11877;SDS011;5998;42.676;23.268;2022-11-12T01:13:37;31.07;;;20.23;;
11877;SDS011;5998;42.676;23.268;2022-11-12T01:16:05;30.27;;;19.63;;
11877;SDS011;5998;42.676;23.268;2022-11-12T01:18:33;30.27;;;18.87;;
11877;SDS011;5998;42.676;23.268;2022-11-12T01:21:01;29.73;;;19.40;;
11877;SDS011;5998;42.676;23.268;2022-11-12T01:23:30;29.33;;;20.10;;
11877;SDS011;5998;42.676;23.268;2022-11-12T01:25:57;28.90;;;19.87;;
11877;SDS011;5998;42.676;23.268;2022-11-12T01:28:28;28.23;;;19.20;;
11877;SDS011;5998;42.676;23.268;2022-11-12T01:30:55;28.67;;;20.10;;
11877;SDS011;5998;42.676;23.268;2022-11-12T01:33:22;26.57;;;19.43;;
11877;SDS011;5998;42.676;23.268;2022-11-12T01:35:48;29.23;;;20.43;;
11877;SDS011;5998;42.676;23.268;2022-11-12T01:38:16;29.97;;;20.60;;
11877;SDS011;5998;42.676;23.268;2022-11-12T01:40:43;27.13;;;20.03;;
11877;SDS011;5998;42.676;23.268;2022-11-12T01:43:10;29.93;;;19.50;;
11877;SDS011;5998;42.676;23.268;2022-11-12T01:45:38;29.03;;;20.10;;
11877;SDS011;5998;42.676;23.268;2022-11-12T01:48:09;27.73;;;19.37;;
11877;SDS011;5998;42.676;23.268;2022-11-12T01:50:50;27.50;;;19.77;;
11877;SDS011;5998;42.676;23.268;2022-11-12T01:53:19;26.97;;;19.90;;
11877;SDS011;5998;42.676;23.268;2022-11-12T01:55:48;26.77;;;19.73;;
11877;SDS011;5998;42.676;23.268;2022-11-12T01:58:16;28.17;;;19.27;;
11877;SDS011;5998;42.676;23.268;2022-11-12T02:00:45;28.70;;;19.73;;
11877;SDS011;5998;42.676;23.268;2022-11-12T02:03:14;30.10;;;18.60;;
11877;SDS011;5998;42.676;23.268;2022-11-12T02:05:45;25.97;;;19.17;;
11877;SDS011;5998;42.676;23.268;2022-11-12T02:08:16;27.83;;;19.30;;
11877;SDS011;5998;42.676;23.268;2022-11-12T02:10:44;28.00;;;20.20;;
11877;SDS011;5998;42.676;23.268;2022-11-12T02:13:11;28.00;;;19.97;;
11877;SDS011;5998;42.676;23.268;2022-11-12T02:15:55;29.33;;;19.50;;
11877;SDS011;5998;42.676;23.268;2022-11-12T02:18:23;27.27;;;17.80;;
11877;SDS011;5998;42.676;23.268;2022-11-12T02:20:51;28.57;;;19.13;;
11877;SDS011;5998;42.676;23.268;2022-11-12T02:23:21;27.57;;;19.40;;
11877;SDS011;5998;42.676;23.268;2022-11-12T02:25:47;28.10;;;19.47;;
11877;SDS011;5998;42.676;23.268;2022-11-12T02:28:14;27.27;;;19.37;;
11877;SDS011;5998;42.676;23.268;2022-11-12T02:30:43;28.53;;;19.57;;
11877;SDS011;5998;42.676;23.268;2022-11-12T02:33:11;27.83;;;19.40;;
11877;SDS011;5998;42.676;23.268;2022-11-12T02:35:38;29.33;;;19.23;;
11877;SDS011;5998;42.676;23.268;2022-11-12T02:38:05;26.40;;;18.50;;
11877;SDS011;5998;42.676;23.268;2022-11-12T02:40:34;28.27;;;18.40;;
11877;SDS011;5998;42.676;23.268;2022-11-12T02:43:01;25.90;;;18.43;;
11877;SDS011;5998;42.676;23.268;2022-11-12T02:45:28;27.70;;;19.43;;
11877;SDS011;5998;42.676;23.268;2022-11-12T02:47:56;27.70;;;18.60;;
11877;SDS011;5998;42.676;23.268;2022-11-12T02:50:22;27.87;;;18.47;;
11877;SDS011;5998;42.676;23.268;2022-11-12T02:52:49;24.17;;;16.77;;
11877;SDS011;5998;42.676;23.268;2022-11-12T02:55:16;22.70;;;16.37;;
11877;SDS011;5998;42.676;23.268;2022-11-12T02:57:44;21.97;;;16.53;;
11877;SDS011;5998;42.676;23.268;2022-11-12T03:00:11;20.00;;;13.37;;
11877;SDS011;5998;42.676;23.268;2022-11-12T03:02:38;18.03;;;13.93;;
11877;SDS011;5998;42.676;23.268;2022-11-12T03:05:07;21.00;;;13.30;;
11877;SDS011;5998;42.676;23.268;2022-11-12T03:07:35;15.13;;;11.83;;
11877;SDS011;5998;42.676;23.268;2022-11-12T03:10:02;12.47;;;9.53;;
11877;SDS011;5998;42.676;23.268;2022-11-12T03:12:29;12.20;;;9.50;;
11877;SDS011;5998;42.676;23.268;2022-11-12T03:14:57;12.30;;;9.87;;
11877;SDS011;5998;42.676;23.268;2022-11-12T03:17:24;12.43;;;9.67;;
11877;SDS011;5998;42.676;23.268;2022-11-12T03:19:50;14.10;;;10.10;;
11877;SDS011;5998;42.676;23.268;2022-11-12T03:22:17;13.80;;;9.90;;
11877;SDS011;5998;42.676;23.268;2022-11-12T03:24:44;13.97;;;8.90;;
11877;SDS011;5998;42.676;23.268;2022-11-12T03:27:10;11.27;;;7.77;;
11877;SDS011;5998;42.676;23.268;2022-11-12T03:29:37;13.63;;;9.63;;
11877;SDS011;5998;42.676;23.268;2022-11-12T03:32:05;12.07;;;7.63;;
11877;SDS011;5998;42.676;23.268;2022-11-12T03:34:32;9.67;;;7.40;;
11877;SDS011;5998;42.676;23.268;2022-11-12T03:36:58;11.93;;;7.83;;
11877;SDS011;5998;42.676;23.268;2022-11-12T03:39:25;8.27;;;6.20;;
11877;SDS011;5998;42.676;23.268;2022-11-12T03:41:52;9.70;;;5.83;;
11877;SDS011;5998;42.676;23.268;2022-11-12T03:44:18;6.60;;;5.73;;
11877;SDS011;5998;42.676;23.268;2022-11-12T03:46:45;8.43;;;5.73;;
11877;SDS011;5998;42.676;23.268;2022-11-12T03:49:13;6.57;;;5.07;;
11877;SDS011;5998;42.676;23.268;2022-11-12T03:51:40;5.43;;;4.80;;
11877;SDS011;5998;42.676;23.268;2022-11-12T03:54:06;6.40;;;5.77;;
11877;SDS011;5998;42.676;23.268;2022-11-12T03:56:33;6.30;;;5.70;;
11877;SDS011;5998;42.676;23.268;2022-11-12T03:59:00;7.87;;;5.87;;
11877;SDS011;5998;42.676;23.268;2022-11-12T04:01:27;6.83;;;5.60;;
11877;SDS011;5998;42.676;23.268;2022-11-12T04:03:53;6.73;;;5.17;;
11877;SDS011;5998;42.676;23.268;2022-11-12T04:06:21;5.77;;;5.17;;
11877;SDS011;5998;42.676;23.268;2022-11-12T04:09:05;8.83;;;5.67;;
11877;SDS011;5998;42.676;23.268;2022-11-12T04:11:32;5.87;;;4.90;;
11877;SDS011;5998;42.676;23.268;2022-11-12T04:13:59;6.80;;;5.67;;
11877;SDS011;5998;42.676;23.268;2022-11-12T04:16:25;7.03;;;5.60;;
11877;SDS011;5998;42.676;23.268;2022-11-12T04:19:10;6.87;;;5.37;;
11877;SDS011;5998;42.676;23.268;2022-11-12T04:21:58;6.00;;;5.20;;
11877;SDS011;5998;42.676;23.268;2022-11-12T04:24:27;5.83;;;5.03;;
11877;SDS011;5998;42.676;23.268;2022-11-12T04:27:14;6.10;;;5.50;;
11877;SDS011;5998;42.676;23.268;2022-11-12T04:29:42;7.73;;;6.10;;
11877;SDS011;5998;42.676;23.268;2022-11-12T04:32:28;8.00;;;5.53;;
11877;SDS011;5998;42.676;23.268;2022-11-12T04:34:56;10.10;;;6.00;;
11877;SDS011;5998;42.676;23.268;2022-11-12T04:37:25;6.57;;;5.43;;
11877;SDS011;5998;42.676;23.268;2022-11-12T04:39:53;7.10;;;5.37;;
11877;SDS011;5998;42.676;23.268;2022-11-12T04:42:40;7.07;;;5.80;;
11877;SDS011;5998;42.676;23.268;2022-11-12T04:45:25;8.37;;;6.50;;
11877;SDS011;5998;42.676;23.268;2022-11-12T04:47:51;6.53;;;5.70;;
11877;SDS011;5998;42.676;23.268;2022-11-12T04:50:18;8.07;;;5.73;;
11877;SDS011;5998;42.676;23.268;2022-11-12T04:52:46;6.90;;;6.20;;
11877;SDS011;5998;42.676;23.268;2022-11-12T04:55:13;6.87;;;6.10;;
11877;SDS011;5998;42.676;23.268;2022-11-12T04:57:40;8.97;;;5.70;;
11877;SDS011;5998;42.676;23.268;2022-11-12T05:00:07;8.63;;;5.53;;
11877;SDS011;5998;42.676;23.268;2022-11-12T05:02:36;7.77;;;6.50;;
11877;SDS011;5998;42.676;23.268;2022-11-12T05:05:02;9.87;;;6.73;;
11877;SDS011;5998;42.676;23.268;2022-11-12T05:07:30;10.10;;;6.97;;
11877;SDS011;5998;42.676;23.268;2022-11-12T05:09:59;9.93;;;6.97;;
11877;SDS011;5998;42.676;23.268;2022-11-12T05:12:26;6.80;;;6.07;;
11877;SDS011;5998;42.676;23.268;2022-11-12T05:14:52;8.27;;;6.57;;
11877;SDS011;5998;42.676;23.268;2022-11-12T05:17:19;12.43;;;7.23;;
11877;SDS011;5998;42.676;23.268;2022-11-12T05:19:45;9.10;;;6.60;;
11877;SDS011;5998;42.676;23.268;2022-11-12T05:22:12;8.70;;;7.10;;
11877;SDS011;5998;42.676;23.268;2022-11-12T05:24:39;7.37;;;6.47;;
11877;SDS011;5998;42.676;23.268;2022-11-12T05:27:09;7.83;;;6.37;;
11877;SDS011;5998;42.676;23.268;2022-11-12T05:29:37;8.77;;;6.53;;
11877;SDS011;5998;42.676;23.268;2022-11-12T05:32:05;11.23;;;6.60;;
11877;SDS011;5998;42.676;23.268;2022-11-12T05:34:32;8.27;;;7.03;;
11877;SDS011;5998;42.676;23.268;2022-11-12T05:37:00;10.27;;;6.27;;
11877;SDS011;5998;42.676;23.268;2022-11-12T05:39:28;7.10;;;6.40;;
11877;SDS011;5998;42.676;23.268;2022-11-12T05:41:55;9.27;;;6.63;;
11877;SDS011;5998;42.676;23.268;2022-11-12T05:44:23;8.50;;;6.03;;
11877;SDS011;5998;42.676;23.268;2022-11-12T05:46:50;8.13;;;6.73;;
11877;SDS011;5998;42.676;23.268;2022-11-12T05:49:17;8.10;;;6.53;;
11877;SDS011;5998;42.676;23.268;2022-11-12T05:51:43;7.63;;;6.77;;
11877;SDS011;5998;42.676;23.268;2022-11-12T05:54:10;9.27;;;7.17;;
11877;SDS011;5998;42.676;23.268;2022-11-12T05:56:37;16.60;;;14.23;;
11877;SDS011;5998;42.676;23.268;2022-11-12T05:59:06;9.03;;;6.83;;
11877;SDS011;5998;42.676;23.268;2022-11-12T06:01:38;8.03;;;6.87;;
11877;SDS011;5998;42.676;23.268;2022-11-12T06:04:08;9.23;;;7.27;;
11877;SDS011;5998;42.676;23.268;2022-11-12T06:06:36;9.30;;;6.70;;
11877;SDS011;5998;42.676;23.268;2022-11-12T06:09:02;9.73;;;7.03;;
11877;SDS011;5998;42.676;23.268;2022-11-12T06:11:30;10.23;;;7.97;;
11877;SDS011;5998;42.676;23.268;2022-11-12T06:13:57;8.87;;;7.97;;
11877;SDS011;5998;42.676;23.268;2022-11-12T06:16:23;10.10;;;7.83;;
11877;SDS011;5998;42.676;23.268;2022-11-12T06:18:52;7.70;;;6.90;;
11877;SDS011;5998;42.676;23.268;2022-11-12T06:21:18;8.37;;;6.90;;
11877;SDS011;5998;42.676;23.268;2022-11-12T06:23:47;7.83;;;7.07;;
11877;SDS011;5998;42.676;23.268;2022-11-12T06:26:18;7.57;;;6.00;;
11877;SDS011;5998;42.676;23.268;2022-11-12T06:28:46;9.13;;;6.83;;
11877;SDS011;5998;42.676;23.268;2022-11-12T06:31:16;9.27;;;7.20;;
11877;SDS011;5998;42.676;23.268;2022-11-12T06:33:43;10.07;;;7.43;;
11877;SDS011;5998;42.676;23.268;2022-11-12T06:36:11;11.17;;;8.10;;
11877;SDS011;5998;42.676;23.268;2022-11-12T06:38:41;9.57;;;8.57;;
11877;SDS011;5998;42.676;23.268;2022-11-12T06:41:10;9.57;;;8.03;;
11877;SDS011;5998;42.676;23.268;2022-11-12T06:43:38;9.53;;;7.93;;
11877;SDS011;5998;42.676;23.268;2022-11-12T06:46:06;9.20;;;7.57;;
11877;SDS011;5998;42.676;23.268;2022-11-12T06:48:34;8.87;;;7.73;;
11877;SDS011;5998;42.676;23.268;2022-11-12T06:51:08;10.07;;;6.83;;
11877;SDS011;5998;42.676;23.268;2022-11-12T06:53:37;9.20;;;7.20;;
11877;SDS011;5998;42.676;23.268;2022-11-12T06:56:04;9.20;;;7.37;;
11877;SDS011;5998;42.676;23.268;2022-11-12T06:58:32;8.63;;;7.70;;
11877;SDS011;5998;42.676;23.268;2022-11-12T07:01:06;10.97;;;7.63;;
11877;SDS011;5998;42.676;23.268;2022-11-12T07:03:35;11.50;;;7.47;;
11877;SDS011;5998;42.676;23.268;2022-11-12T07:06:02;8.50;;;7.60;;
11877;SDS011;5998;42.676;23.268;2022-11-12T07:08:30;10.40;;;7.87;;
11877;SDS011;5998;42.676;23.268;2022-11-12T07:10:58;9.03;;;7.33;;
11877;SDS011;5998;42.676;23.268;2022-11-12T07:13:25;10.40;;;8.20;;
11877;SDS011;5998;42.676;23.268;2022-11-12T07:15:55;8.27;;;6.73;;
11877;SDS011;5998;42.676;23.268;2022-11-12T07:18:22;8.60;;;7.27;;
11877;SDS011;5998;42.676;23.268;2022-11-12T07:20:49;9.57;;;6.80;;
11877;SDS011;5998;42.676;23.268;2022-11-12T07:23:15;8.70;;;7.10;;
11877;SDS011;5998;42.676;23.268;2022-11-12T07:25:42;7.70;;;6.70;;
11877;SDS011;5998;42.676;23.268;2022-11-12T07:28:10;9.57;;;6.83;;
11877;SDS011;5998;42.676;23.268;2022-11-12T07:30:37;8.37;;;7.17;;
11877;SDS011;5998;42.676;23.268;2022-11-12T07:33:03;9.90;;;7.30;;
11877;SDS011;5998;42.676;23.268;2022-11-12T07:35:30;8.27;;;7.33;;
11877;SDS011;5998;42.676;23.268;2022-11-12T07:37:57;11.07;;;8.03;;
11877;SDS011;5998;42.676;23.268;2022-11-12T07:40:23;8.27;;;6.97;;
11877;SDS011;5998;42.676;23.268;2022-11-12T07:42:50;9.77;;;7.27;;
11877;SDS011;5998;42.676;23.268;2022-11-12T07:45:18;9.80;;;7.13;;
11877;SDS011;5998;42.676;23.268;2022-11-12T07:47:45;8.43;;;7.07;;
11877;SDS011;5998;42.676;23.268;2022-11-12T07:50:12;7.30;;;6.53;;
11877;SDS011;5998;42.676;23.268;2022-11-12T07:52:38;8.73;;;7.13;;
11877;SDS011;5998;42.676;23.268;2022-11-12T07:55:05;12.67;;;8.10;;
11877;SDS011;5998;42.676;23.268;2022-11-12T07:57:32;10.17;;;7.17;;
11877;SDS011;5998;42.676;23.268;2022-11-12T07:59:59;9.83;;;7.13;;
11877;SDS011;5998;42.676;23.268;2022-11-12T08:02:27;7.67;;;6.57;;
11877;SDS011;5998;42.676;23.268;2022-11-12T08:04:54;10.40;;;6.37;;
11877;SDS011;5998;42.676;23.268;2022-11-12T08:07:20;6.30;;;5.70;;
11877;SDS011;5998;42.676;23.268;2022-11-12T08:09:47;9.87;;;7.13;;
11877;SDS011;5998;42.676;23.268;2022-11-12T08:12:14;10.73;;;6.90;;
11877;SDS011;5998;42.676;23.268;2022-11-12T08:14:40;7.03;;;6.00;;
11877;SDS011;5998;42.676;23.268;2022-11-12T08:17:07;7.43;;;5.70;;
11877;SDS011;5998;42.676;23.268;2022-11-12T08:19:35;8.50;;;6.03;;
11877;SDS011;5998;42.676;23.268;2022-11-12T08:22:02;10.87;;;6.30;;
11877;SDS011;5998;42.676;23.268;2022-11-12T08:24:30;7.67;;;5.30;;
11877;SDS011;5998;42.676;23.268;2022-11-12T08:26:56;9.37;;;6.37;;
11877;SDS011;5998;42.676;23.268;2022-11-12T08:29:23;9.53;;;7.10;;
11877;SDS011;5998;42.676;23.268;2022-11-12T08:31:50;7.93;;;7.13;;
11877;SDS011;5998;42.676;23.268;2022-11-12T08:34:17;14.23;;;7.30;;
11877;SDS011;5998;42.676;23.268;2022-11-12T08:36:45;8.37;;;5.73;;
11877;SDS011;5998;42.676;23.268;2022-11-12T08:39:12;10.63;;;7.30;;
11877;SDS011;5998;42.676;23.268;2022-11-12T08:41:38;8.70;;;7.27;;
11877;SDS011;5998;42.676;23.268;2022-11-12T08:44:05;10.80;;;7.37;;
11877;SDS011;5998;42.676;23.268;2022-11-12T08:46:32;9.00;;;7.27;;
11877;SDS011;5998;42.676;23.268;2022-11-12T08:48:58;8.67;;;7.10;;
11877;SDS011;5998;42.676;23.268;2022-11-12T08:51:25;7.73;;;6.30;;
11877;SDS011;5998;42.676;23.268;2022-11-12T08:53:53;9.90;;;6.07;;
11877;SDS011;5998;42.676;23.268;2022-11-12T08:56:20;6.57;;;5.87;;
11877;SDS011;5998;42.676;23.268;2022-11-12T08:58:47;10.47;;;5.90;;
11877;SDS011;5998;42.676;23.268;2022-11-12T09:01:13;7.57;;;6.03;;
11877;SDS011;5998;42.676;23.268;2022-11-12T09:03:40;5.87;;;5.23;;
11877;SDS011;5998;42.676;23.268;2022-11-12T09:06:07;6.20;;;5.60;;
11877;SDS011;5998;42.676;23.268;2022-11-12T09:08:34;5.83;;;5.23;;
11877;SDS011;5998;42.676;23.268;2022-11-12T09:11:03;5.60;;;4.87;;
11877;SDS011;5998;42.676;23.268;2022-11-12T09:13:30;10.07;;;5.37;;
11877;SDS011;5998;42.676;23.268;2022-11-12T09:16:00;7.53;;;4.97;;
11877;SDS011;5998;42.676;23.268;2022-11-12T09:18:28;6.30;;;4.47;;
11877;SDS011;5998;42.676;23.268;2022-11-12T09:20:59;6.40;;;5.30;;
11877;SDS011;5998;42.676;23.268;2022-11-12T09:23:27;6.00;;;5.10;;
11877;SDS011;5998;42.676;23.268;2022-11-12T09:25:54;5.83;;;4.50;;
11877;SDS011;5998;42.676;23.268;2022-11-12T09:28:23;5.20;;;4.60;;
11877;SDS011;5998;42.676;23.268;2022-11-12T09:30:50;5.03;;;4.40;;
11877;SDS011;5998;42.676;23.268;2022-11-12T09:33:19;5.20;;;4.30;;
11877;SDS011;5998;42.676;23.268;2022-11-12T09:35:47;5.07;;;4.27;;
11877;SDS011;5998;42.676;23.268;2022-11-12T09:38:15;6.47;;;5.17;;
11877;SDS011;5998;42.676;23.268;2022-11-12T09:40:58;5.17;;;4.43;;
11877;SDS011;5998;42.676;23.268;2022-11-12T09:43:35;5.67;;;5.07;;
11877;SDS011;5998;42.676;23.268;2022-11-12T09:46:05;6.03;;;4.57;;
11877;SDS011;5998;42.676;23.268;2022-11-12T09:48:50;4.70;;;4.03;;
11877;SDS011;5998;42.676;23.268;2022-11-12T09:51:23;6.00;;;4.50;;
11877;SDS011;5998;42.676;23.268;2022-11-12T09:53:53;5.70;;;4.57;;
11877;SDS011;5998;42.676;23.268;2022-11-12T09:56:21;6.20;;;4.17;;
11877;SDS011;5998;42.676;23.268;2022-11-12T09:58:51;4.63;;;4.20;;
11877;SDS011;5998;42.676;23.268;2022-11-12T10:01:20;4.70;;;3.33;;
11877;SDS011;5998;42.676;23.268;2022-11-12T10:03:52;3.90;;;3.20;;
11877;SDS011;5998;42.676;23.268;2022-11-12T10:06:28;3.53;;;3.23;;
11877;SDS011;5998;42.676;23.268;2022-11-12T10:09:01;3.93;;;3.57;;
11877;SDS011;5998;42.676;23.268;2022-11-12T10:11:37;5.40;;;3.90;;
11877;SDS011;5998;42.676;23.268;2022-11-12T10:14:37;4.33;;;3.20;;
11877;SDS011;5998;42.676;23.268;2022-11-12T10:17:17;4.93;;;3.50;;
11877;SDS011;5998;42.676;23.268;2022-11-12T10:19:57;5.13;;;3.40;;
11877;SDS011;5998;42.676;23.268;2022-11-12T10:22:34;3.00;;;2.63;;
11877;SDS011;5998;42.676;23.268;2022-11-12T10:25:12;3.30;;;1.97;;
11877;SDS011;5998;42.676;23.268;2022-11-12T10:27:41;4.63;;;2.97;;
11877;SDS011;5998;42.676;23.268;2022-11-12T10:30:14;3.60;;;3.27;;
11877;SDS011;5998;42.676;23.268;2022-11-12T10:32:42;4.00;;;3.27;;
11877;SDS011;5998;42.676;23.268;2022-11-12T10:35:11;5.07;;;3.30;;
11877;SDS011;5998;42.676;23.268;2022-11-12T10:37:41;3.83;;;3.33;;
11877;SDS011;5998;42.676;23.268;2022-11-12T10:40:26;5.07;;;3.40;;
11877;SDS011;5998;42.676;23.268;2022-11-12T10:42:59;3.90;;;2.97;;
11877;SDS011;5998;42.676;23.268;2022-11-12T10:45:28;5.87;;;2.53;;
11877;SDS011;5998;42.676;23.268;2022-11-12T10:47:55;2.97;;;2.57;;
11877;SDS011;5998;42.676;23.268;2022-11-12T10:50:24;4.00;;;3.60;;
11877;SDS011;5998;42.676;23.268;2022-11-12T10:52:55;4.20;;;3.80;;
11877;SDS011;5998;42.676;23.268;2022-11-12T10:55:25;4.90;;;3.57;;
11877;SDS011;5998;42.676;23.268;2022-11-12T10:58:03;6.33;;;3.40;;
11877;SDS011;5998;42.676;23.268;2022-11-12T11:00:33;4.43;;;3.40;;
11877;SDS011;5998;42.676;23.268;2022-11-12T11:03:01;4.03;;;3.63;;
11877;SDS011;5998;42.676;23.268;2022-11-12T11:05:32;5.20;;;4.10;;
11877;SDS011;5998;42.676;23.268;2022-11-12T11:08:01;6.00;;;4.20;;
11877;SDS011;5998;42.676;23.268;2022-11-12T11:10:29;5.73;;;3.90;;
11877;SDS011;5998;42.676;23.268;2022-11-12T11:13:07;6.23;;;4.10;;
11877;SDS011;5998;42.676;23.268;2022-11-12T11:15:37;5.40;;;4.13;;
11877;SDS011;5998;42.676;23.268;2022-11-12T11:18:04;5.47;;;3.70;;
11877;SDS011;5998;42.676;23.268;2022-11-12T11:20:34;6.23;;;3.70;;
11877;SDS011;5998;42.676;23.268;2022-11-12T11:23:11;4.00;;;3.30;;
11877;SDS011;5998;42.676;23.268;2022-11-12T11:25:45;5.47;;;3.50;;
11877;SDS011;5998;42.676;23.268;2022-11-12T11:28:18;3.33;;;3.03;;
11877;SDS011;5998;42.676;23.268;2022-11-12T11:30:58;5.23;;;3.50;;
11877;SDS011;5998;42.676;23.268;2022-11-12T11:33:38;4.93;;;3.27;;
11877;SDS011;5998;42.676;23.268;2022-11-12T11:36:15;3.80;;;3.50;;
11877;SDS011;5998;42.676;23.268;2022-11-12T11:38:50;4.07;;;3.77;;
11877;SDS011;5998;42.676;23.268;2022-11-12T11:41:27;4.23;;;3.80;;
11877;SDS011;5998;42.676;23.268;2022-11-12T11:44:05;5.20;;;4.00;;
11877;SDS011;5998;42.676;23.268;2022-11-12T11:49:36;4.73;;;3.57;;
11877;SDS011;5998;42.676;23.268;2022-11-12T11:52:22;5.50;;;3.60;;
11877;SDS011;5998;42.676;23.268;2022-11-12T11:55:03;4.07;;;3.40;;
11877;SDS011;5998;42.676;23.268;2022-11-12T11:57:41;6.17;;;4.03;;
11877;SDS011;5998;42.676;23.268;2022-11-12T12:00:18;5.77;;;3.50;;
11877;SDS011;5998;42.676;23.268;2022-11-12T12:02:54;4.07;;;3.67;;
11877;SDS011;5998;42.676;23.268;2022-11-12T12:05:39;4.37;;;3.97;;
11877;SDS011;5998;42.676;23.268;2022-11-12T12:08:10;4.87;;;3.70;;
11877;SDS011;5998;42.676;23.268;2022-11-12T12:10:47;3.97;;;3.57;;
11877;SDS011;5998;42.676;23.268;2022-11-12T12:13:24;4.47;;;3.77;;
11877;SDS011;5998;42.676;23.268;2022-11-12T12:16:03;4.20;;;3.80;;
11877;SDS011;5998;42.676;23.268;2022-11-12T12:18:44;4.33;;;3.60;;
11877;SDS011;5998;42.676;23.268;2022-11-12T12:21:19;5.50;;;3.33;;
11877;SDS011;5998;42.676;23.268;2022-11-12T12:23:51;5.37;;;3.87;;
11877;SDS011;5998;42.676;23.268;2022-11-12T12:26:22;4.13;;;3.40;;
11877;SDS011;5998;42.676;23.268;2022-11-12T12:28:54;8.60;;;4.40;;
11877;SDS011;5998;42.676;23.268;2022-11-12T12:31:24;4.50;;;3.77;;
11877;SDS011;5998;42.676;23.268;2022-11-12T12:33:57;5.43;;;4.03;;
11877;SDS011;5998;42.676;23.268;2022-11-12T12:36:31;4.77;;;4.13;;
11877;SDS011;5998;42.676;23.268;2022-11-12T12:39:03;5.23;;;3.83;;
11877;SDS011;5998;42.676;23.268;2022-11-12T12:41:39;5.47;;;4.23;;
11877;SDS011;5998;42.676;23.268;2022-11-12T12:44:11;5.07;;;4.57;;
11877;SDS011;5998;42.676;23.268;2022-11-12T12:46:39;4.10;;;3.70;;
11877;SDS011;5998;42.676;23.268;2022-11-12T12:49:10;6.30;;;4.17;;
11877;SDS011;5998;42.676;23.268;2022-11-12T12:51:42;6.07;;;4.37;;
11877;SDS011;5998;42.676;23.268;2022-11-12T12:57:32;5.00;;;4.50;;
11877;SDS011;5998;42.676;23.268;2022-11-12T13:02:52;9.07;;;5.50;;
11877;SDS011;5998;42.676;23.268;2022-11-12T13:05:22;5.60;;;5.10;;
11877;SDS011;5998;42.676;23.268;2022-11-12T13:07:53;6.90;;;5.10;;
11877;SDS011;5998;42.676;23.268;2022-11-12T13:13:25;6.47;;;4.97;;
11877;SDS011;5998;42.676;23.268;2022-11-12T13:15:57;4.27;;;3.87;;
11877;SDS011;5998;42.676;23.268;2022-11-12T13:21:26;5.10;;;4.20;;
11877;SDS011;5998;42.676;23.268;2022-11-12T13:23:55;4.13;;;3.50;;
11877;SDS011;5998;42.676;23.268;2022-11-12T13:26:42;3.80;;;3.50;;
11877;SDS011;5998;42.676;23.268;2022-11-12T13:35:18;5.83;;;4.37;;
11877;SDS011;5998;42.676;23.268;2022-11-12T13:37:48;5.07;;;3.80;;
11877;SDS011;5998;42.676;23.268;2022-11-12T13:40:21;3.93;;;3.43;;
11877;SDS011;5998;42.676;23.268;2022-11-12T13:43:18;4.00;;;3.60;;
11877;SDS011;5998;42.676;23.268;2022-11-12T13:45:56;4.03;;;3.63;;
11877;SDS011;5998;42.676;23.268;2022-11-12T13:48:26;3.73;;;3.43;;
11877;SDS011;5998;42.676;23.268;2022-11-12T13:50:56;3.93;;;3.10;;
11877;SDS011;5998;42.676;23.268;2022-11-12T13:53:26;4.70;;;3.60;;
11877;SDS011;5998;42.676;23.268;2022-11-12T13:55:56;4.90;;;3.33;;
11877;SDS011;5998;42.676;23.268;2022-11-12T13:58:26;3.60;;;3.30;;
11877;SDS011;5998;42.676;23.268;2022-11-12T14:00:55;8.23;;;3.93;;
11877;SDS011;5998;42.676;23.268;2022-11-12T14:03:24;4.17;;;3.77;;
11877;SDS011;5998;42.676;23.268;2022-11-12T14:05:54;4.27;;;3.83;;
11877;SDS011;5998;42.676;23.268;2022-11-12T14:08:24;3.97;;;3.53;;
11877;SDS011;5998;42.676;23.268;2022-11-12T14:14:09;7.47;;;4.03;;
11877;SDS011;5998;42.676;23.268;2022-11-12T14:16:48;4.30;;;3.90;;
11877;SDS011;5998;42.676;23.268;2022-11-12T14:19:26;4.83;;;4.30;;
11877;SDS011;5998;42.676;23.268;2022-11-12T14:22:12;4.37;;;3.90;;
11877;SDS011;5998;42.676;23.268;2022-11-12T14:24:40;5.23;;;4.23;;
11877;SDS011;5998;42.676;23.268;2022-11-12T14:27:23;5.20;;;3.63;;
11877;SDS011;5998;42.676;23.268;2022-11-12T14:32:50;7.00;;;4.47;;
11877;SDS011;5998;42.676;23.268;2022-11-12T14:38:04;4.67;;;4.00;;
11877;SDS011;5998;42.676;23.268;2022-11-12T14:40:37;4.07;;;3.67;;
11877;SDS011;5998;42.676;23.268;2022-11-12T14:43:16;4.57;;;4.10;;
11877;SDS011;5998;42.676;23.268;2022-11-12T14:45:49;6.43;;;3.90;;
11877;SDS011;5998;42.676;23.268;2022-11-12T14:48:17;4.50;;;4.10;;
11877;SDS011;5998;42.676;23.268;2022-11-12T14:50:44;4.43;;;4.03;;
11877;SDS011;5998;42.676;23.268;2022-11-12T14:53:15;4.50;;;4.10;;
11877;SDS011;5998;42.676;23.268;2022-11-12T14:55:47;4.33;;;3.93;;
11877;SDS011;5998;42.676;23.268;2022-11-12T14:58:19;6.17;;;4.70;;
11877;SDS011;5998;42.676;23.268;2022-11-12T15:00:49;5.30;;;4.47;;
11877;SDS011;5998;42.676;23.268;2022-11-12T15:03:18;7.07;;;5.23;;
11877;SDS011;5998;42.676;23.268;2022-11-12T15:05:56;6.17;;;4.17;;
11877;SDS011;5998;42.676;23.268;2022-11-12T15:08:29;6.47;;;4.57;;
11877;SDS011;5998;42.676;23.268;2022-11-12T15:13:44;5.57;;;4.37;;
11877;SDS011;5998;42.676;23.268;2022-11-12T15:16:16;5.20;;;4.50;;
11877;SDS011;5998;42.676;23.268;2022-11-12T15:18:56;6.43;;;5.37;;
11877;SDS011;5998;42.676;23.268;2022-11-12T15:21:43;5.77;;;4.77;;
11877;SDS011;5998;42.676;23.268;2022-11-12T15:24:14;5.90;;;4.23;;
11877;SDS011;5998;42.676;23.268;2022-11-12T15:26:44;6.97;;;5.10;;
11877;SDS011;5998;42.676;23.268;2022-11-12T15:29:14;5.20;;;4.33;;